createdAt,value
2023-02-16T00:01:25.844Z,1.88
2023-02-16T00:03:54.755Z,2.03
2023-02-16T00:06:22.318Z,2.22
2023-02-16T00:08:52.509Z,2.08
2023-02-16T00:11:49.883Z,2.04
2023-02-16T00:14:18.277Z,2.09
2023-02-16T00:16:45.847Z,2.04
2023-02-16T00:19:18.665Z,2.05
2023-02-16T00:21:46.183Z,2.08
2023-02-16T00:24:15.295Z,1.94
2023-02-16T00:26:43.468Z,2.11
2023-02-16T00:29:16.431Z,2.06
2023-02-16T00:31:44.005Z,2.02
2023-02-16T00:34:26.549Z,2.08
2023-02-16T00:36:54.122Z,1.97
2023-02-16T00:39:24.868Z,2.08
2023-02-16T00:41:53.754Z,2.16
2023-02-16T00:44:30.759Z,2.13
2023-02-16T00:46:58.497Z,2.37
2023-02-16T00:49:26.016Z,2.20
2023-02-16T00:51:53.616Z,2.23
2023-02-16T00:54:21.163Z,2.39
2023-02-16T00:56:50.035Z,2.37
2023-02-16T00:59:19.708Z,2.34
2023-02-16T01:01:47.364Z,2.31
2023-02-16T01:04:21.359Z,2.22
2023-02-16T01:07:06.687Z,2.11
2023-02-16T01:09:52.266Z,2.04
2023-02-16T01:12:21.702Z,2.10
2023-02-16T01:14:53.165Z,2.22
2023-02-16T01:17:20.641Z,2.14
2023-02-16T01:19:48.120Z,2.13
2023-02-16T01:22:15.776Z,2.01
2023-02-16T01:24:43.269Z,1.99
2023-02-16T01:27:12.115Z,1.90
2023-02-16T01:29:40.936Z,2.03
2023-02-16T01:32:08.496Z,2.12
2023-02-16T01:34:36.028Z,2.29
2023-02-16T01:37:03.622Z,2.06
2023-02-16T01:39:31.111Z,2.28
2023-02-16T01:42:05.671Z,2.34
2023-02-16T01:44:36.611Z,2.33
2023-02-16T01:47:11.987Z,2.15
2023-02-16T01:49:39.484Z,2.23
2023-02-16T01:52:13.161Z,1.98
2023-02-16T01:54:44.507Z,1.90
2023-02-16T01:57:23.442Z,1.92
2023-02-16T02:00:08.401Z,1.92
2023-02-16T02:02:38.349Z,1.98
2023-02-16T02:05:30.258Z,1.97
2023-02-16T02:08:00.837Z,1.83
2023-02-16T02:10:32.127Z,1.77
2023-02-16T02:13:05.858Z,1.70
2023-02-16T02:15:34.267Z,1.64
2023-02-16T02:18:03.357Z,1.72
2023-02-16T02:21:00.559Z,1.83
2023-02-16T02:23:40.477Z,1.91
2023-02-16T02:26:36.180Z,1.79
2023-02-16T02:29:16.867Z,1.61
2023-02-16T02:31:51.021Z,1.79
2023-02-16T02:34:25.123Z,1.73
2023-02-16T02:36:58.485Z,1.70
2023-02-16T02:39:33.203Z,1.71
2023-02-16T02:42:04.825Z,1.68
2023-02-16T02:44:32.867Z,1.64
2023-02-16T02:47:00.661Z,1.59
2023-02-16T02:49:28.266Z,1.59
2023-02-16T02:51:55.954Z,1.48
2023-02-16T02:54:43.317Z,1.46
2023-02-16T02:57:33.523Z,1.58
2023-02-16T03:00:20.262Z,1.49
2023-02-16T03:02:50.635Z,1.44
2023-02-16T03:05:19.675Z,1.68
2023-02-16T03:07:47.927Z,1.64
2023-02-16T03:10:34.537Z,1.66
2023-02-16T03:13:05.371Z,1.58
2023-02-16T03:15:33.103Z,1.51
2023-02-16T03:18:18.799Z,1.55
2023-02-16T03:21:04.918Z,1.46
2023-02-16T03:23:50.478Z,1.66
2023-02-16T03:26:37.422Z,1.72
2023-02-16T03:29:21.884Z,1.64
2023-02-16T03:31:49.756Z,1.72
2023-02-16T03:34:18.449Z,1.62
2023-02-16T03:36:48.507Z,1.63
2023-02-16T03:39:16.248Z,1.76
2023-02-16T03:41:46.854Z,1.71
2023-02-16T03:44:15.910Z,1.59
2023-02-16T03:46:43.719Z,1.72
2023-02-16T03:49:11.347Z,1.55
2023-02-16T03:51:38.887Z,1.45
2023-02-16T03:54:06.481Z,1.50
2023-02-16T03:56:34.080Z,1.56
2023-02-16T03:59:01.572Z,1.59
2023-02-16T04:01:30.619Z,1.54
2023-02-16T04:03:58.204Z,1.61
2023-02-16T04:06:25.855Z,1.56
2023-02-16T04:08:54.489Z,1.46
2023-02-16T04:11:39.786Z,1.47
2023-02-16T04:14:07.590Z,1.55
2023-02-16T04:16:36.594Z,1.64
2023-02-16T04:19:04.106Z,1.65
2023-02-16T04:21:31.600Z,1.60
2023-02-16T04:23:59.128Z,1.64
2023-02-16T04:26:26.820Z,1.67
2023-02-16T04:28:54.324Z,1.59
2023-02-16T04:31:21.956Z,1.45
2023-02-16T04:33:50.880Z,1.60
2023-02-16T04:36:18.562Z,1.59
2023-02-16T04:38:46.110Z,1.43
2023-02-16T04:41:13.625Z,1.36
2023-02-16T04:43:41.171Z,1.43
2023-02-16T04:46:08.711Z,1.47
2023-02-16T04:48:36.197Z,1.48
2023-02-16T04:51:06.341Z,1.36
2023-02-16T04:53:34.012Z,1.36
2023-02-16T04:56:01.520Z,1.41
2023-02-16T04:58:29.090Z,1.39
2023-02-16T05:00:56.756Z,1.54
2023-02-16T05:03:24.286Z,1.55
2023-02-16T05:05:51.777Z,1.45
2023-02-16T05:08:20.954Z,1.44
2023-02-16T05:11:08.677Z,1.33
2023-02-16T05:14:02.312Z,1.36
2023-02-16T05:16:29.972Z,1.52
2023-02-16T05:18:58.819Z,1.46
2023-02-16T05:21:32.468Z,1.53
2023-02-16T05:24:03.089Z,1.67
2023-02-16T05:26:30.704Z,1.77
2023-02-16T05:28:58.302Z,1.54
2023-02-16T05:31:26.089Z,1.42
2023-02-16T05:33:53.697Z,1.56
2023-02-16T05:36:21.930Z,1.61
2023-02-16T05:38:49.466Z,1.50
2023-02-16T05:41:24.264Z,1.47
2023-02-16T05:43:53.099Z,1.34
2023-02-16T05:46:21.143Z,1.34
2023-02-16T05:48:48.973Z,1.39
2023-02-16T05:51:16.668Z,1.32
2023-02-16T05:53:44.227Z,1.26
2023-02-16T05:56:12.093Z,1.17
2023-02-16T05:58:41.029Z,1.27
2023-02-16T06:01:08.522Z,1.28
2023-02-16T06:03:36.623Z,1.25
2023-02-16T06:06:05.525Z,1.21
2023-02-16T06:08:33.732Z,1.38
2023-02-16T06:11:01.578Z,1.43
2023-02-16T06:13:29.269Z,1.45
2023-02-16T06:16:00.226Z,1.20
2023-02-16T06:18:27.989Z,1.21
2023-02-16T06:20:57.749Z,1.10
2023-02-16T06:23:25.258Z,1.03
2023-02-16T06:25:52.722Z,0.94
2023-02-16T06:28:20.208Z,0.86
2023-02-16T06:30:47.701Z,0.80
2023-02-16T06:33:16.527Z,0.79
2023-02-16T06:35:43.982Z,0.87
2023-02-16T06:38:11.677Z,0.88
2023-02-16T06:40:39.193Z,0.91
2023-02-16T06:43:06.713Z,0.87
2023-02-16T06:45:34.200Z,0.95
2023-02-16T06:48:01.830Z,0.84
2023-02-16T06:50:30.728Z,0.76
2023-02-16T06:52:58.211Z,0.82
2023-02-16T06:55:25.681Z,0.96
2023-02-16T06:57:53.164Z,0.97
2023-02-16T07:00:21.240Z,0.82
2023-02-16T07:02:48.706Z,0.91
2023-02-16T07:05:16.696Z,0.78
2023-02-16T07:07:45.513Z,0.85
2023-02-16T07:10:14.341Z,0.68
2023-02-16T07:12:41.900Z,0.72
2023-02-16T07:15:10.201Z,0.59
2023-02-16T07:17:37.722Z,0.63
2023-02-16T07:20:06.032Z,0.67
2023-02-16T07:22:33.826Z,0.60
2023-02-16T07:25:03.178Z,0.47
2023-02-16T07:27:30.672Z,0.60
2023-02-16T07:29:58.243Z,0.45
2023-02-16T07:32:25.845Z,0.71
2023-02-16T07:34:53.364Z,0.67
2023-02-16T07:37:20.815Z,0.49
2023-02-16T07:39:48.670Z,0.53
2023-02-16T07:42:17.546Z,0.22
2023-02-16T07:44:45.042Z,0.13
2023-02-16T07:47:13.366Z,0.09
2023-02-16T07:49:41.198Z,0.14
2023-02-16T07:52:08.718Z,0.32
2023-02-16T07:54:36.477Z,0.49
2023-02-16T07:57:04.083Z,0.56
2023-02-16T07:59:32.926Z,0.41
2023-02-16T08:02:00.618Z,0.29
2023-02-16T08:04:28.250Z,0.30
2023-02-16T08:06:55.708Z,0.27
2023-02-16T08:09:23.194Z,0.24
2023-02-16T08:11:50.701Z,0.28
2023-02-16T08:14:18.205Z,-0.02
2023-02-16T08:16:47.055Z,0.00
2023-02-16T08:19:14.571Z,-0.09
2023-02-16T08:21:42.099Z,-0.02
2023-02-16T08:24:13.064Z,0.11
2023-02-16T08:26:43.137Z,-0.02
2023-02-16T08:29:13.036Z,0.06
2023-02-16T08:31:41.713Z,0.32
2023-02-16T08:34:11.139Z,0.44
2023-02-16T08:36:39.965Z,0.14
2023-02-16T08:39:09.744Z,0.07
2023-02-16T08:41:37.991Z,0.12
2023-02-16T08:44:07.058Z,0.13
2023-02-16T08:46:35.254Z,0.05
2023-02-16T08:49:03.036Z,0.29
2023-02-16T08:51:34.705Z,0.12
2023-02-16T08:54:05.834Z,0.11
2023-02-16T08:56:34.403Z,0.08
2023-02-16T08:59:02.499Z,0.40
2023-02-16T09:01:30.789Z,0.29
2023-02-16T09:03:58.874Z,0.32
2023-02-16T09:06:26.473Z,0.48
2023-02-16T09:08:57.197Z,0.36
2023-02-16T09:11:25.708Z,0.32
2023-02-16T09:13:53.164Z,0.34
2023-02-16T09:16:22.375Z,0.28
2023-02-16T09:18:50.784Z,0.27
2023-02-16T09:21:20.836Z,0.36
2023-02-16T09:23:49.950Z,0.33
2023-02-16T09:26:20.252Z,0.74
2023-02-16T09:28:48.537Z,0.57
2023-02-16T09:31:19.961Z,0.42
2023-02-16T09:33:47.692Z,0.75
2023-02-16T09:36:15.171Z,0.88
2023-02-16T09:38:43.083Z,0.74
2023-02-16T09:41:23.781Z,0.30
2023-02-16T09:43:55.970Z,0.37
2023-02-16T09:46:25.341Z,0.40
2023-02-16T09:48:53.041Z,0.47
2023-02-16T09:51:33.920Z,0.74
2023-02-16T09:54:09.766Z,0.75
2023-02-16T09:56:41.968Z,0.59
2023-02-16T09:59:13.069Z,0.63
2023-02-16T10:01:45.497Z,0.48
2023-02-16T10:04:25.416Z,0.60
2023-02-16T10:07:00.885Z,0.71
2023-02-16T10:09:30.475Z,0.76
2023-02-16T10:12:08.333Z,0.71
2023-02-16T10:14:42.213Z,1.08
2023-02-16T10:17:16.878Z,1.17
2023-02-16T10:19:49.586Z,1.08
2023-02-16T10:22:34.058Z,1.14
2023-02-16T10:25:07.730Z,1.40
2023-02-16T10:27:39.770Z,1.61
2023-02-16T10:30:19.828Z,1.52
2023-02-16T10:32:57.934Z,1.21
2023-02-16T10:35:31.489Z,1.49
2023-02-16T10:38:03.706Z,1.45
2023-02-16T10:40:38.810Z,1.43
2023-02-16T10:43:14.028Z,1.32
2023-02-16T10:45:49.524Z,1.61
2023-02-16T10:48:20.716Z,1.79
2023-02-16T10:50:54.763Z,1.69
2023-02-16T10:53:24.803Z,1.71
2023-02-16T10:55:54.443Z,1.58
2023-02-16T10:58:27.680Z,1.63
2023-02-16T11:00:59.648Z,1.86
2023-02-16T11:03:32.885Z,1.89
2023-02-16T11:06:13.934Z,1.79
2023-02-16T11:08:50.917Z,1.80
2023-02-16T11:11:22.824Z,1.82
2023-02-16T11:14:02.546Z,1.89
2023-02-16T11:16:30.731Z,1.97
2023-02-16T11:19:00.293Z,2.13
2023-02-16T11:21:45.031Z,2.26
2023-02-16T11:24:25.324Z,2.20
2023-02-16T11:27:01.959Z,2.05
2023-02-16T11:29:31.428Z,2.01
2023-02-16T11:32:03.878Z,2.30
2023-02-16T11:34:34.116Z,2.06
2023-02-16T11:37:06.243Z,2.23
2023-02-16T11:39:37.454Z,2.62
2023-02-16T11:42:08.109Z,2.62
2023-02-16T11:44:43.643Z,2.60
2023-02-16T11:47:24.500Z,2.74
2023-02-16T11:50:09.871Z,2.48
2023-02-16T11:52:37.565Z,2.20
2023-02-16T11:55:05.998Z,2.14
2023-02-16T11:57:35.802Z,2.19
2023-02-16T12:00:15.717Z,2.37
2023-02-16T12:03:03.321Z,2.73
2023-02-16T12:05:39.357Z,2.92
2023-02-16T12:08:22.158Z,2.77
2023-02-16T12:11:04.373Z,2.77
2023-02-16T12:13:37.531Z,2.76
2023-02-16T12:16:16.760Z,2.58
2023-02-16T12:18:52.173Z,2.63
2023-02-16T12:21:23.766Z,2.78
2023-02-16T12:23:56.823Z,2.91
2023-02-16T12:26:36.592Z,3.03
2023-02-16T12:29:20.549Z,2.98
2023-02-16T12:32:05.910Z,3.21
2023-02-16T12:34:41.068Z,3.60
2023-02-16T12:37:16.808Z,3.35
2023-02-16T12:39:50.849Z,3.55
2023-02-16T12:42:38.819Z,3.77
2023-02-16T12:45:10.839Z,3.89
2023-02-16T12:47:44.059Z,3.68
2023-02-16T12:50:19.624Z,3.42
2023-02-16T12:52:49.958Z,3.69
2023-02-16T12:55:22.894Z,4.02
2023-02-16T12:57:56.031Z,4.26
2023-02-16T13:00:27.330Z,3.82
2023-02-16T13:03:03.044Z,3.86
2023-02-16T13:05:33.309Z,3.81
2023-02-16T13:08:08.272Z,3.69
2023-02-16T13:10:37.728Z,3.65
2023-02-16T13:13:07.400Z,3.91
2023-02-16T13:15:38.051Z,3.97
2023-02-16T13:18:13.782Z,4.28
2023-02-16T13:20:45.592Z,3.90
2023-02-16T13:23:31.763Z,3.86
2023-02-16T13:26:11.974Z,3.78
2023-02-16T13:28:55.568Z,3.91
2023-02-16T13:31:30.615Z,3.85
2023-02-16T13:34:13.793Z,3.79
2023-02-16T13:36:50.713Z,3.93
2023-02-16T13:39:32.681Z,3.92
2023-02-16T13:42:44.040Z,3.96
2023-02-16T13:45:15.928Z,3.88
2023-02-16T13:47:47.457Z,4.03
2023-02-16T13:50:31.008Z,4.01
2023-02-16T13:53:02.149Z,4.07
2023-02-16T13:55:33.567Z,4.03
2023-02-16T13:58:07.574Z,4.13
2023-02-16T14:00:37.994Z,4.26
2023-02-16T14:03:12.238Z,4.25
2023-02-16T14:05:43.519Z,4.42
2023-02-16T14:08:30.336Z,4.57
2023-02-16T14:11:00.620Z,4.40
2023-02-16T14:13:29.752Z,4.26
2023-02-16T14:16:02.424Z,4.22
2023-02-16T14:18:33.646Z,4.20
2023-02-16T14:21:03.372Z,4.29
2023-02-16T14:23:34.401Z,4.26
2023-02-16T14:26:03.543Z,4.23
2023-02-16T14:29:12.431Z,4.11
2023-02-16T14:31:48.239Z,4.26
2023-02-16T14:34:20.244Z,4.32
2023-02-16T14:37:11.656Z,4.48
2023-02-16T14:40:04.050Z,4.65
2023-02-16T14:42:29.874Z,4.68
2023-02-16T14:45:10.131Z,4.78
2023-02-16T14:47:45.747Z,4.81
2023-02-16T14:50:32.869Z,4.84
2023-02-16T14:53:20.657Z,4.87
2023-02-16T14:56:19.427Z,4.87
2023-02-16T14:58:52.991Z,4.87
2023-02-16T15:01:22.511Z,4.98
2023-02-16T15:03:51.559Z,5.15
2023-02-16T15:06:23.773Z,5.24
2023-02-16T15:08:58.165Z,5.04
2023-02-16T15:11:31.818Z,4.95
2023-02-16T15:14:04.721Z,4.92
2023-02-16T15:16:33.499Z,4.84
2023-02-16T15:19:04.412Z,4.99
2023-02-16T15:21:31.939Z,4.72
2023-02-16T15:24:02.777Z,4.71
2023-02-16T15:26:33.062Z,4.64
2023-02-16T15:29:04.988Z,4.76
2023-02-16T15:31:34.527Z,4.79
2023-02-16T15:34:05.565Z,4.86
2023-02-16T15:36:35.305Z,4.80
2023-02-16T15:39:06.958Z,4.66
2023-02-16T15:41:36.178Z,4.76
2023-02-16T15:44:05.723Z,4.84
2023-02-16T15:46:36.564Z,4.99
2023-02-16T15:49:12.464Z,5.00
2023-02-16T15:51:43.004Z,5.00
2023-02-16T15:54:20.944Z,4.84
2023-02-16T15:56:49.663Z,4.80
2023-02-16T15:59:32.060Z,4.77
2023-02-16T16:02:02.677Z,4.72
2023-02-16T16:04:31.845Z,4.65
2023-02-16T16:07:00.103Z,4.73
2023-02-16T16:09:31.232Z,4.76
2023-02-16T16:12:01.861Z,4.76
2023-02-16T16:14:29.931Z,4.71
2023-02-16T16:16:57.570Z,4.74
2023-02-16T16:19:33.212Z,4.77
2023-02-16T16:22:01.174Z,4.65
2023-02-16T16:24:35.259Z,4.76
2023-02-16T16:27:08.067Z,4.66
2023-02-16T16:29:41.092Z,4.58
2023-02-16T16:32:18.590Z,4.81
2023-02-16T16:34:49.593Z,4.71
2023-02-16T16:37:29.657Z,4.56
2023-02-16T16:40:05.229Z,4.61
2023-02-16T16:42:34.088Z,4.46
2023-02-16T16:45:07.607Z,4.44
2023-02-16T16:47:38.176Z,4.60
2023-02-16T16:50:19.323Z,4.48
2023-02-16T16:52:48.659Z,4.53
2023-02-16T16:55:30.324Z,4.50
2023-02-16T16:58:00.335Z,4.58
2023-02-16T17:00:30.713Z,4.62
2023-02-16T17:02:58.407Z,4.59
2023-02-16T17:05:28.062Z,4.65
2023-02-16T17:07:55.520Z,4.76
2023-02-16T17:10:25.918Z,4.84
2023-02-16T17:12:59.658Z,4.91
2023-02-16T17:15:40.646Z,4.83
2023-02-16T17:18:10.574Z,4.83
2023-02-16T17:20:38.126Z,4.75
2023-02-16T17:23:06.056Z,4.58
2023-02-16T17:25:37.136Z,4.52
2023-02-16T17:28:06.705Z,4.57
2023-02-16T17:30:42.872Z,4.54
2023-02-16T17:33:11.116Z,4.50
2023-02-16T17:35:41.019Z,4.29
2023-02-16T17:38:20.580Z,4.19
2023-02-16T17:40:48.376Z,4.20
2023-02-16T17:43:21.713Z,4.19
2023-02-16T17:45:50.056Z,4.21
2023-02-16T17:48:20.168Z,4.22
2023-02-16T17:50:49.229Z,4.31
2023-02-16T17:53:18.738Z,4.32
2023-02-16T17:55:47.448Z,4.24
2023-02-16T17:58:17.271Z,4.29
2023-02-16T18:00:47.611Z,4.31
2023-02-16T18:03:15.427Z,4.34
2023-02-16T18:05:43.162Z,4.42
2023-02-16T18:08:11.964Z,4.32
2023-02-16T18:10:41.715Z,4.42
2023-02-16T18:13:10.760Z,4.45
2023-02-16T18:15:40.685Z,4.43
2023-02-16T18:18:11.219Z,4.48
2023-02-16T18:20:38.903Z,4.42
2023-02-16T18:23:06.411Z,4.29
2023-02-16T18:25:34.094Z,4.30
2023-02-16T18:28:01.581Z,4.26
2023-02-16T18:30:29.138Z,4.23
2023-02-16T18:32:58.197Z,4.10
2023-02-16T18:35:25.644Z,4.08
2023-02-16T18:37:53.298Z,4.02
2023-02-16T18:40:22.093Z,4.03
2023-02-16T18:42:49.694Z,4.11
2023-02-16T18:45:17.607Z,4.10
2023-02-16T18:47:45.262Z,4.09
2023-02-16T18:50:14.577Z,4.10
2023-02-16T18:52:43.246Z,4.15
2023-02-16T18:55:11.190Z,4.20
2023-02-16T18:57:39.071Z,4.16
2023-02-16T19:00:08.737Z,4.21
2023-02-16T19:02:37.061Z,4.22
2023-02-16T19:05:06.822Z,4.22
2023-02-16T19:07:36.131Z,4.28
2023-02-16T19:10:04.431Z,4.31
2023-02-16T19:12:32.215Z,4.30
2023-02-16T19:15:00.449Z,4.24
2023-02-16T19:17:27.987Z,4.20
2023-02-16T19:19:55.647Z,4.23
2023-02-16T19:22:26.826Z,4.29
2023-02-16T19:24:57.894Z,4.29
2023-02-16T19:27:28.029Z,4.40
2023-02-16T19:29:58.203Z,4.40
2023-02-16T19:32:26.915Z,4.43
2023-02-16T19:35:00.437Z,4.35
2023-02-16T19:37:29.286Z,4.28
2023-02-16T19:39:58.398Z,4.22
2023-02-16T19:42:26.012Z,4.19
2023-02-16T19:44:56.551Z,4.19
2023-02-16T19:47:24.193Z,4.18
2023-02-16T19:49:51.895Z,4.19
2023-02-16T19:52:19.424Z,4.19
2023-02-16T19:54:47.075Z,4.25
2023-02-16T19:57:16.169Z,4.28
2023-02-16T19:59:46.582Z,4.35
2023-02-16T20:02:16.700Z,4.36
2023-02-16T20:04:44.368Z,4.47
2023-02-16T20:07:12.149Z,4.47
2023-02-16T20:09:48.624Z,4.40
2023-02-16T20:12:17.524Z,4.42
2023-02-16T20:14:45.280Z,4.51
2023-02-16T20:17:12.919Z,4.42
2023-02-16T20:19:40.733Z,4.51
2023-02-16T20:22:08.439Z,4.53
2023-02-16T20:24:36.483Z,4.44
2023-02-16T20:27:04.995Z,4.39
2023-02-16T20:29:35.211Z,4.42
2023-02-16T20:32:04.918Z,4.51
2023-02-16T20:34:33.633Z,4.62
2023-02-16T20:37:01.393Z,4.64
2023-02-16T20:39:33.124Z,4.68
2023-02-16T20:42:02.714Z,4.56
2023-02-16T20:44:30.374Z,4.58
2023-02-16T20:47:01.616Z,4.53
2023-02-16T20:49:29.298Z,4.57
2023-02-16T20:51:56.985Z,4.58
2023-02-16T20:54:24.569Z,4.62
2023-02-16T20:56:52.186Z,4.74
2023-02-16T20:59:19.646Z,4.66
2023-02-16T21:01:50.258Z,4.71
2023-02-16T21:04:20.861Z,4.84
2023-02-16T21:06:48.643Z,4.88
2023-02-16T21:09:16.720Z,4.96
2023-02-16T21:11:44.516Z,4.99
2023-02-16T21:14:15.430Z,5.04
2023-02-16T21:16:43.480Z,5.12
2023-02-16T21:19:22.243Z,5.09
2023-02-16T21:21:53.645Z,5.06
2023-02-16T21:24:28.624Z,5.10
2023-02-16T21:26:58.404Z,5.10
2023-02-16T21:29:26.012Z,5.09
2023-02-16T21:31:53.687Z,5.10
2023-02-16T21:34:21.683Z,5.11
2023-02-16T21:36:49.314Z,5.04
2023-02-16T21:39:18.269Z,5.08
2023-02-16T21:41:47.122Z,5.07
2023-02-16T21:44:18.986Z,5.14
2023-02-16T21:46:47.942Z,5.17
2023-02-16T21:49:17.136Z,5.16
2023-02-16T21:51:45.409Z,5.21
2023-02-16T21:54:15.514Z,5.11
2023-02-16T21:56:45.483Z,5.13
2023-02-16T21:59:14.497Z,5.14
2023-02-16T22:01:43.724Z,5.20
2023-02-16T22:04:12.473Z,5.24
2023-02-16T22:06:42.491Z,5.22
2023-02-16T22:09:14.065Z,5.26
2023-02-16T22:11:42.069Z,5.28
2023-02-16T22:14:11.491Z,5.39
2023-02-16T22:16:39.616Z,5.40
2023-02-16T22:19:09.070Z,5.37
2023-02-16T22:21:37.837Z,5.45
2023-02-16T22:24:06.804Z,5.40
2023-02-16T22:26:35.876Z,5.44
2023-02-16T22:29:09.388Z,5.46
2023-02-16T22:31:38.965Z,5.46
2023-02-16T22:34:13.607Z,5.44
2023-02-16T22:36:42.199Z,5.40
2023-02-16T22:39:09.820Z,5.30
2023-02-16T22:41:39.900Z,5.36
2023-02-16T22:44:10.106Z,5.50
2023-02-16T22:46:39.112Z,5.54
2023-02-16T22:49:08.907Z,5.55
2023-02-16T22:51:37.515Z,5.58
2023-02-16T22:54:08.552Z,5.53
2023-02-16T22:56:37.619Z,5.59
2023-02-16T22:59:07.278Z,5.53
2023-02-16T23:01:35.348Z,5.61
2023-02-16T23:04:06.141Z,5.60
2023-02-16T23:06:37.555Z,5.58
2023-02-16T23:09:07.937Z,5.69
2023-02-16T23:11:37.495Z,5.73
2023-02-16T23:14:05.908Z,5.64
2023-02-16T23:16:35.777Z,5.67
2023-02-16T23:19:05.165Z,5.68
2023-02-16T23:21:34.090Z,5.64
2023-02-16T23:24:05.694Z,5.66
2023-02-16T23:26:33.666Z,5.57
2023-02-16T23:29:08.401Z,5.57
2023-02-16T23:31:37.418Z,5.62
2023-02-16T23:34:07.425Z,5.67
2023-02-16T23:36:36.217Z,5.66
2023-02-16T23:39:06.212Z,5.71
2023-02-16T23:41:33.735Z,5.70
2023-02-16T23:44:01.435Z,5.69
2023-02-16T23:46:29.004Z,5.67
2023-02-16T23:48:56.664Z,5.57
2023-02-16T23:51:25.466Z,5.63
2023-02-16T23:53:53.009Z,5.64
2023-02-16T23:56:27.338Z,5.58
2023-02-16T23:58:58.366Z,5.62
